Idlewood, Illinois
Current Conditions -  °F | °C
As of 11:55 AM on Friday 24 Oct 2014 (Local Time) from KMVN Reporting Station
Broken Clouds Broken Clouds  
Wind Chill: 66°   Ceiling: 3800
Heat Index: 66°   Visibility: 10mi
Dew Point: 55°   Wind: 3mph
Humidity: 68%   Direction: 210°SSW
Pressure: 30.13"   Gusts: NA
Location:  38.3147°N, 88.9065°W
Report Text: KMVN 241655Z AUTO 21003KT 10SM SCT028 BKN038 19/13 A3013 RMK AO1
Loading
Personal Weather Stations






























Interactive Weather Map
Tropical Storm Tracking
New forecast layout! Learn more

10-Day Weather Forecast

Advertisements
Track Severe Weather on mobile